sensor_id;sensor_type;location;lat;lon;timestamp;temperature;humidity
72772;SHT30;60894;42.544;1.516;2022-11-21T00:00:25;4.23;64.35
72772;SHT30;60894;42.544;1.516;2022-11-21T00:02:52;4.19;65.01
72772;SHT30;60894;42.544;1.516;2022-11-21T00:05:21;4.20;64.92
72772;SHT30;60894;42.544;1.516;2022-11-21T00:07:48;4.26;64.56
72772;SHT30;60894;42.544;1.516;2022-11-21T00:10:15;4.33;64.49
72772;SHT30;60894;42.544;1.516;2022-11-21T00:12:42;4.33;64.43
72772;SHT30;60894;42.544;1.516;2022-11-21T00:15:09;4.26;65.21
72772;SHT30;60894;42.544;1.516;2022-11-21T00:17:36;4.24;65.30
72772;SHT30;60894;42.544;1.516;2022-11-21T00:20:04;4.30;64.97
72772;SHT30;60894;42.544;1.516;2022-11-21T00:22:33;4.33;64.65
72772;SHT30;60894;42.544;1.516;2022-11-21T00:25:00;4.30;64.80
72772;SHT30;60894;42.544;1.516;2022-11-21T00:27:27;4.30;64.54
72772;SHT30;60894;42.544;1.516;2022-11-21T00:29:54;4.29;64.90
72772;SHT30;60894;42.544;1.516;2022-11-21T00:32:21;4.36;64.52
72772;SHT30;60894;42.544;1.516;2022-11-21T00:34:47;4.34;64.44
72772;SHT30;60894;42.544;1.516;2022-11-21T00:37:14;4.42;64.07
72772;SHT30;60894;42.544;1.516;2022-11-21T00:39:43;4.46;63.76
72772;SHT30;60894;42.544;1.516;2022-11-21T00:42:10;4.43;63.83
72772;SHT30;60894;42.544;1.516;2022-11-21T00:44:37;4.42;64.28
72772;SHT30;60894;42.544;1.516;2022-11-21T00:47:04;4.43;64.90
72772;SHT30;60894;42.544;1.516;2022-11-21T00:49:31;4.39;65.38
72772;SHT30;60894;42.544;1.516;2022-11-21T00:51:58;4.39;65.46
72772;SHT30;60894;42.544;1.516;2022-11-21T00:54:25;4.39;66.17
72772;SHT30;60894;42.544;1.516;2022-11-21T00:56:54;4.37;65.77
72772;SHT30;60894;42.544;1.516;2022-11-21T00:59:21;4.34;65.61
72772;SHT30;60894;42.544;1.516;2022-11-21T01:01:48;4.37;64.70
72772;SHT30;60894;42.544;1.516;2022-11-21T01:04:15;4.40;65.12
72772;SHT30;60894;42.544;1.516;2022-11-21T01:06:42;4.39;65.58
72772;SHT30;60894;42.544;1.516;2022-11-21T01:09:09;4.43;65.44
72772;SHT30;60894;42.544;1.516;2022-11-21T01:11:36;4.39;65.58
72772;SHT30;60894;42.544;1.516;2022-11-21T01:14:04;4.34;65.68
72772;SHT30;60894;42.544;1.516;2022-11-21T01:16:31;4.39;65.44
72772;SHT30;60894;42.544;1.516;2022-11-21T01:18:58;4.42;65.48
72772;SHT30;60894;42.544;1.516;2022-11-21T01:21:28;4.50;65.21
72772;SHT30;60894;42.544;1.516;2022-11-21T01:23:58;4.52;64.88
72772;SHT30;60894;42.544;1.516;2022-11-21T01:26:27;4.52;65.16
72772;SHT30;60894;42.544;1.516;2022-11-21T01:28:54;4.50;65.17
72772;SHT30;60894;42.544;1.516;2022-11-21T01:31:25;4.46;64.19
72772;SHT30;60894;42.544;1.516;2022-11-21T01:33:53;4.56;64.41
72772;SHT30;60894;42.544;1.516;2022-11-21T01:36:22;4.60;64.33
72772;SHT30;60894;42.544;1.516;2022-11-21T01:38:51;4.63;64.30
72772;SHT30;60894;42.544;1.516;2022-11-21T01:41:21;4.60;64.50
72772;SHT30;60894;42.544;1.516;2022-11-21T01:43:48;4.63;64.38
72772;SHT30;60894;42.544;1.516;2022-11-21T01:46:17;4.63;64.55
72772;SHT30;60894;42.544;1.516;2022-11-21T01:48:49;4.56;65.24
72772;SHT30;60894;42.544;1.516;2022-11-21T01:51:20;4.53;64.73
72772;SHT30;60894;42.544;1.516;2022-11-21T01:53:52;4.60;65.07
72772;SHT30;60894;42.544;1.516;2022-11-21T01:56:21;4.64;64.85
72772;SHT30;60894;42.544;1.516;2022-11-21T01:58:50;4.56;65.17
72772;SHT30;60894;42.544;1.516;2022-11-21T02:01:18;4.57;65.40
72772;SHT30;60894;42.544;1.516;2022-11-21T02:03:47;4.68;64.81
72772;SHT30;60894;42.544;1.516;2022-11-21T02:06:14;4.64;64.90
72772;SHT30;60894;42.544;1.516;2022-11-21T02:08:43;4.60;63.97
72772;SHT30;60894;42.544;1.516;2022-11-21T02:11:16;4.63;63.82
72772;SHT30;60894;42.544;1.516;2022-11-21T02:13:45;4.63;64.32
72772;SHT30;60894;42.544;1.516;2022-11-21T02:16:12;4.64;64.78
72772;SHT30;60894;42.544;1.516;2022-11-21T02:18:39;4.65;64.93
72772;SHT30;60894;42.544;1.516;2022-11-21T02:21:14;4.67;64.45
72772;SHT30;60894;42.544;1.516;2022-11-21T02:23:47;4.63;64.16
72772;SHT30;60894;42.544;1.516;2022-11-21T02:26:17;4.65;64.29
72772;SHT30;60894;42.544;1.516;2022-11-21T02:28:44;4.68;64.91
72772;SHT30;60894;42.544;1.516;2022-11-21T02:31:11;4.73;64.93
72772;SHT30;60894;42.544;1.516;2022-11-21T02:33:38;4.70;64.68
72772;SHT30;60894;42.544;1.516;2022-11-21T02:36:26;4.68;65.31
72772;SHT30;60894;42.544;1.516;2022-11-21T02:38:57;4.67;65.09
72772;SHT30;60894;42.544;1.516;2022-11-21T02:41:26;4.73;64.59
72772;SHT30;60894;42.544;1.516;2022-11-21T02:43:58;4.73;64.86
72772;SHT30;60894;42.544;1.516;2022-11-21T02:46:27;4.77;64.58
72772;SHT30;60894;42.544;1.516;2022-11-21T02:48:55;4.75;64.56
72772;SHT30;60894;42.544;1.516;2022-11-21T02:51:22;4.73;64.32
72772;SHT30;60894;42.544;1.516;2022-11-21T02:53:49;4.63;64.69
72772;SHT30;60894;42.544;1.516;2022-11-21T02:56:16;4.63;64.69
72772;SHT30;60894;42.544;1.516;2022-11-21T02:58:45;4.67;65.52
72772;SHT30;60894;42.544;1.516;2022-11-21T03:01:12;4.70;64.80
72772;SHT30;60894;42.544;1.516;2022-11-21T03:03:39;4.71;64.97
72772;SHT30;60894;42.544;1.516;2022-11-21T03:06:06;4.81;63.44
72772;SHT30;60894;42.544;1.516;2022-11-21T03:08:33;4.81;63.14
72772;SHT30;60894;42.544;1.516;2022-11-21T03:11:00;4.77;62.73
72772;SHT30;60894;42.544;1.516;2022-11-21T03:13:27;4.74;64.81
72772;SHT30;60894;42.544;1.516;2022-11-21T03:15:55;4.71;65.60
72772;SHT30;60894;42.544;1.516;2022-11-21T03:18:22;4.70;65.76
72772;SHT30;60894;42.544;1.516;2022-11-21T03:20:49;4.80;65.69
72772;SHT30;60894;42.544;1.516;2022-11-21T03:23:17;4.83;64.99
72772;SHT30;60894;42.544;1.516;2022-11-21T03:25:44;4.94;63.27
72772;SHT30;60894;42.544;1.516;2022-11-21T03:28:11;4.91;63.64
72772;SHT30;60894;42.544;1.516;2022-11-21T03:30:38;4.92;64.19
72772;SHT30;60894;42.544;1.516;2022-11-21T03:33:06;4.78;64.48
72772;SHT30;60894;42.544;1.516;2022-11-21T03:35:33;4.78;63.75
72772;SHT30;60894;42.544;1.516;2022-11-21T03:38:00;4.78;63.99
72772;SHT30;60894;42.544;1.516;2022-11-21T03:40:27;4.83;63.74
72772;SHT30;60894;42.544;1.516;2022-11-21T03:42:54;4.95;63.98
72772;SHT30;60894;42.544;1.516;2022-11-21T03:45:21;4.92;62.70
72772;SHT30;60894;42.544;1.516;2022-11-21T03:47:48;5.04;64.69
72772;SHT30;60894;42.544;1.516;2022-11-21T03:50:16;4.98;65.10
72772;SHT30;60894;42.544;1.516;2022-11-21T03:52:45;4.98;66.82
72772;SHT30;60894;42.544;1.516;2022-11-21T03:55:12;4.94;66.17
72772;SHT30;60894;42.544;1.516;2022-11-21T03:57:39;4.95;67.50
72772;SHT30;60894;42.544;1.516;2022-11-21T04:00:07;4.99;69.34
72772;SHT30;60894;42.544;1.516;2022-11-21T04:02:35;4.92;71.30
72772;SHT30;60894;42.544;1.516;2022-11-21T04:05:02;4.89;72.30
72772;SHT30;60894;42.544;1.516;2022-11-21T04:07:30;4.80;75.00
72772;SHT30;60894;42.544;1.516;2022-11-21T04:09:57;4.77;74.96
72772;SHT30;60894;42.544;1.516;2022-11-21T04:12:24;4.81;75.70
72772;SHT30;60894;42.544;1.516;2022-11-21T04:14:51;4.80;74.78
72772;SHT30;60894;42.544;1.516;2022-11-21T04:17:18;4.85;74.68
72772;SHT30;60894;42.544;1.516;2022-11-21T04:19:45;4.77;74.44
72772;SHT30;60894;42.544;1.516;2022-11-21T04:22:12;4.71;74.18
72772;SHT30;60894;42.544;1.516;2022-11-21T04:24:40;4.60;73.71
72772;SHT30;60894;42.544;1.516;2022-11-21T04:27:07;4.28;75.23
72772;SHT30;60894;42.544;1.516;2022-11-21T04:29:34;4.20;76.17
72772;SHT30;60894;42.544;1.516;2022-11-21T04:32:01;4.26;76.16
72772;SHT30;60894;42.544;1.516;2022-11-21T04:34:28;4.20;76.48
72772;SHT30;60894;42.544;1.516;2022-11-21T04:36:55;4.15;77.29
72772;SHT30;60894;42.544;1.516;2022-11-21T04:39:22;4.01;77.49
72772;SHT30;60894;42.544;1.516;2022-11-21T04:41:50;3.79;77.98
72772;SHT30;60894;42.544;1.516;2022-11-21T04:44:17;3.75;78.80
72772;SHT30;60894;42.544;1.516;2022-11-21T04:46:44;3.98;78.68
72772;SHT30;60894;42.544;1.516;2022-11-21T04:49:11;3.95;78.38
72772;SHT30;60894;42.544;1.516;2022-11-21T04:51:38;3.95;78.77
72772;SHT30;60894;42.544;1.516;2022-11-21T04:54:05;3.92;78.39
72772;SHT30;60894;42.544;1.516;2022-11-21T04:56:32;3.88;77.94
72772;SHT30;60894;42.544;1.516;2022-11-21T04:59:00;3.77;78.24
72772;SHT30;60894;42.544;1.516;2022-11-21T05:01:27;3.68;78.49
72772;SHT30;60894;42.544;1.516;2022-11-21T05:03:54;3.68;78.66
72772;SHT30;60894;42.544;1.516;2022-11-21T05:06:21;3.51;79.22
72772;SHT30;60894;42.544;1.516;2022-11-21T05:08:48;3.33;79.49
72772;SHT30;60894;42.544;1.516;2022-11-21T05:11:15;3.34;79.54
72772;SHT30;60894;42.544;1.516;2022-11-21T05:13:56;3.37;79.23
72772;SHT30;60894;42.544;1.516;2022-11-21T05:16:24;3.27;79.53
72772;SHT30;60894;42.544;1.516;2022-11-21T05:18:51;3.27;79.41
72772;SHT30;60894;42.544;1.516;2022-11-21T05:21:18;3.30;80.11
72772;SHT30;60894;42.544;1.516;2022-11-21T05:23:45;3.26;79.88
72772;SHT30;60894;42.544;1.516;2022-11-21T05:26:12;3.13;80.57
72772;SHT30;60894;42.544;1.516;2022-11-21T05:28:39;2.99;81.06
72772;SHT30;60894;42.544;1.516;2022-11-21T05:31:06;2.93;81.23
72772;SHT30;60894;42.544;1.516;2022-11-21T05:33:35;2.99;81.39
72772;SHT30;60894;42.544;1.516;2022-11-21T05:36:02;2.97;81.27
72772;SHT30;60894;42.544;1.516;2022-11-21T05:38:29;2.97;80.96
72772;SHT30;60894;42.544;1.516;2022-11-21T05:40:56;2.92;81.07
72772;SHT30;60894;42.544;1.516;2022-11-21T05:43:23;2.90;81.51
72772;SHT30;60894;42.544;1.516;2022-11-21T05:46:07;2.82;81.76
72772;SHT30;60894;42.544;1.516;2022-11-21T05:48:36;2.78;81.75
72772;SHT30;60894;42.544;1.516;2022-11-21T05:51:03;2.71;82.06
72772;SHT30;60894;42.544;1.516;2022-11-21T05:53:30;2.78;81.94
72772;SHT30;60894;42.544;1.516;2022-11-21T05:56:01;2.82;81.85
72772;SHT30;60894;42.544;1.516;2022-11-21T05:58:28;2.86;81.77
72772;SHT30;60894;42.544;1.516;2022-11-21T06:00:55;2.78;82.25
72772;SHT30;60894;42.544;1.516;2022-11-21T06:03:23;2.72;82.33
72772;SHT30;60894;42.544;1.516;2022-11-21T06:05:58;2.72;82.52
72772;SHT30;60894;42.544;1.516;2022-11-21T06:08:26;2.72;82.23
72772;SHT30;60894;42.544;1.516;2022-11-21T06:10:53;2.73;82.31
72772;SHT30;60894;42.544;1.516;2022-11-21T06:13:20;2.72;82.55
72772;SHT30;60894;42.544;1.516;2022-11-21T06:15:52;2.66;82.49
72772;SHT30;60894;42.544;1.516;2022-11-21T06:18:19;2.66;82.75
72772;SHT30;60894;42.544;1.516;2022-11-21T06:20:46;2.66;82.95
72772;SHT30;60894;42.544;1.516;2022-11-21T06:23:15;2.69;82.78
72772;SHT30;60894;42.544;1.516;2022-11-21T06:25:42;2.71;82.48
72772;SHT30;60894;42.544;1.516;2022-11-21T06:28:09;2.69;82.63
72772;SHT30;60894;42.544;1.516;2022-11-21T06:30:37;2.71;82.79
72772;SHT30;60894;42.544;1.516;2022-11-21T06:33:05;2.75;82.68
72772;SHT30;60894;42.544;1.516;2022-11-21T06:35:36;2.73;82.75
72772;SHT30;60894;42.544;1.516;2022-11-21T06:38:04;2.73;83.09
72772;SHT30;60894;42.544;1.516;2022-11-21T06:40:32;2.85;82.21
72772;SHT30;60894;42.544;1.516;2022-11-21T06:43:00;2.78;82.51
72772;SHT30;60894;42.544;1.516;2022-11-21T06:45:27;2.71;82.89
72772;SHT30;60894;42.544;1.516;2022-11-21T06:47:54;2.68;83.01
72772;SHT30;60894;42.544;1.516;2022-11-21T06:50:21;2.71;83.16
72772;SHT30;60894;42.544;1.516;2022-11-21T06:52:48;2.81;83.11
72772;SHT30;60894;42.544;1.516;2022-11-21T06:55:15;2.82;82.56
72772;SHT30;60894;42.544;1.516;2022-11-21T06:57:43;2.71;82.95
72772;SHT30;60894;42.544;1.516;2022-11-21T07:00:12;2.83;82.80
72772;SHT30;60894;42.544;1.516;2022-11-21T07:02:39;2.73;82.97
72772;SHT30;60894;42.544;1.516;2022-11-21T07:05:06;2.73;83.43
72772;SHT30;60894;42.544;1.516;2022-11-21T07:07:33;2.79;83.31
72772;SHT30;60894;42.544;1.516;2022-11-21T07:10:00;2.81;83.26
72772;SHT30;60894;42.544;1.516;2022-11-21T07:12:27;2.92;82.76
72772;SHT30;60894;42.544;1.516;2022-11-21T07:15:13;2.90;83.04
72772;SHT30;60894;42.544;1.516;2022-11-21T07:17:40;2.95;82.72
72772;SHT30;60894;42.544;1.516;2022-11-21T07:20:08;3.03;82.55
72772;SHT30;60894;42.544;1.516;2022-11-21T07:22:35;3.02;82.57
72772;SHT30;60894;42.544;1.516;2022-11-21T07:25:03;3.02;82.92
72772;SHT30;60894;42.544;1.516;2022-11-21T07:27:30;2.93;83.02
72772;SHT30;60894;42.544;1.516;2022-11-21T07:29:57;2.90;83.21
72772;SHT30;60894;42.544;1.516;2022-11-21T07:32:25;2.88;83.60
72772;SHT30;60894;42.544;1.516;2022-11-21T07:34:52;2.88;83.32
72772;SHT30;60894;42.544;1.516;2022-11-21T07:37:19;2.93;83.12
72772;SHT30;60894;42.544;1.516;2022-11-21T07:39:46;2.95;83.08
72772;SHT30;60894;42.544;1.516;2022-11-21T07:42:13;2.95;82.91
72772;SHT30;60894;42.544;1.516;2022-11-21T07:44:40;2.97;82.88
72772;SHT30;60894;42.544;1.516;2022-11-21T07:47:07;2.99;82.70
72772;SHT30;60894;42.544;1.516;2022-11-21T07:49:36;3.02;82.50
72772;SHT30;60894;42.544;1.516;2022-11-21T07:52:03;3.04;82.85
72772;SHT30;60894;42.544;1.516;2022-11-21T07:54:30;3.16;81.89
72772;SHT30;60894;42.544;1.516;2022-11-21T07:56:57;3.10;81.87
72772;SHT30;60894;42.544;1.516;2022-11-21T07:59:24;3.19;81.75
72772;SHT30;60894;42.544;1.516;2022-11-21T08:01:51;3.07;82.28
72772;SHT30;60894;42.544;1.516;2022-11-21T08:04:18;3.09;82.79
72772;SHT30;60894;42.544;1.516;2022-11-21T08:06:46;3.10;83.05
72772;SHT30;60894;42.544;1.516;2022-11-21T08:09:13;3.20;83.08
72772;SHT30;60894;42.544;1.516;2022-11-21T08:11:40;3.17;82.95
72772;SHT30;60894;42.544;1.516;2022-11-21T08:14:07;3.24;82.54
72772;SHT30;60894;42.544;1.516;2022-11-21T08:16:34;3.24;82.59
72772;SHT30;60894;42.544;1.516;2022-11-21T08:19:01;3.26;82.71
72772;SHT30;60894;42.544;1.516;2022-11-21T08:21:28;3.28;82.74
72772;SHT30;60894;42.544;1.516;2022-11-21T08:23:57;3.45;82.65
72772;SHT30;60894;42.544;1.516;2022-11-21T08:26:24;3.45;82.36
72772;SHT30;60894;42.544;1.516;2022-11-21T08:28:51;3.41;81.64
72772;SHT30;60894;42.544;1.516;2022-11-21T08:31:18;3.51;82.63
72772;SHT30;60894;42.544;1.516;2022-11-21T08:33:45;3.58;82.43
72772;SHT30;60894;42.544;1.516;2022-11-21T08:36:12;3.54;82.16
72772;SHT30;60894;42.544;1.516;2022-11-21T08:38:39;3.57;81.53
72772;SHT30;60894;42.544;1.516;2022-11-21T08:41:07;3.68;81.66
72772;SHT30;60894;42.544;1.516;2022-11-21T08:43:54;3.71;81.63
72772;SHT30;60894;42.544;1.516;2022-11-21T08:46:21;3.72;82.26
72772;SHT30;60894;42.544;1.516;2022-11-21T08:48:51;3.85;82.52
72772;SHT30;60894;42.544;1.516;2022-11-21T08:51:18;3.85;81.79
72772;SHT30;60894;42.544;1.516;2022-11-21T08:53:46;3.96;81.28
72772;SHT30;60894;42.544;1.516;2022-11-21T08:56:14;3.95;81.49
72772;SHT30;60894;42.544;1.516;2022-11-21T08:58:41;3.86;82.06
72772;SHT30;60894;42.544;1.516;2022-11-21T09:01:08;4.58;89.39
72772;SHT30;60894;42.544;1.516;2022-11-21T09:03:35;5.94;93.09
72772;SHT30;60894;42.544;1.516;2022-11-21T09:06:02;5.56;81.21
72772;SHT30;60894;42.544;1.516;2022-11-21T09:08:29;5.29;77.90
72772;SHT30;60894;42.544;1.516;2022-11-21T09:10:57;5.18;78.47
72772;SHT30;60894;42.544;1.516;2022-11-21T09:13:26;5.02;77.91
72772;SHT30;60894;42.544;1.516;2022-11-21T09:15:53;4.77;78.80
72772;SHT30;60894;42.544;1.516;2022-11-21T09:18:37;4.67;80.25
72772;SHT30;60894;42.544;1.516;2022-11-21T09:21:04;4.54;79.94
72772;SHT30;60894;42.544;1.516;2022-11-21T09:23:31;4.47;80.56
72772;SHT30;60894;42.544;1.516;2022-11-21T09:25:59;4.56;81.11
72772;SHT30;60894;42.544;1.516;2022-11-21T09:28:27;4.53;81.68
72772;SHT30;60894;42.544;1.516;2022-11-21T09:30:54;4.58;81.49
72772;SHT30;60894;42.544;1.516;2022-11-21T09:33:21;4.74;82.19
72772;SHT30;60894;42.544;1.516;2022-11-21T09:35:48;4.81;79.10
72772;SHT30;60894;42.544;1.516;2022-11-21T09:38:15;4.63;80.21
72772;SHT30;60894;42.544;1.516;2022-11-21T09:40:44;4.63;80.40
72772;SHT30;60894;42.544;1.516;2022-11-21T09:43:37;4.87;79.79
72772;SHT30;60894;42.544;1.516;2022-11-21T09:46:10;4.84;80.20
72772;SHT30;60894;42.544;1.516;2022-11-21T09:48:46;4.78;80.40
72772;SHT30;60894;42.544;1.516;2022-11-21T09:51:16;4.87;81.61
72772;SHT30;60894;42.544;1.516;2022-11-21T09:53:52;4.91;80.16
72772;SHT30;60894;42.544;1.516;2022-11-21T09:56:22;4.89;80.56
72772;SHT30;60894;42.544;1.516;2022-11-21T09:59:04;4.68;79.80
72772;SHT30;60894;42.544;1.516;2022-11-21T10:01:31;4.87;79.84
72772;SHT30;60894;42.544;1.516;2022-11-21T10:04:00;5.08;81.79
72772;SHT30;60894;42.544;1.516;2022-11-21T10:06:28;5.16;79.68
72772;SHT30;60894;42.544;1.516;2022-11-21T10:09:01;5.49;79.38
72772;SHT30;60894;42.544;1.516;2022-11-21T10:11:37;5.80;80.41
72772;SHT30;60894;42.544;1.516;2022-11-21T10:14:39;5.85;78.06
72772;SHT30;60894;42.544;1.516;2022-11-21T10:17:17;5.78;77.36
72772;SHT30;60894;42.544;1.516;2022-11-21T10:20:05;5.66;77.67
72772;SHT30;60894;42.544;1.516;2022-11-21T10:22:47;5.67;77.54
72772;SHT30;60894;42.544;1.516;2022-11-21T10:25:22;5.50;77.36
72772;SHT30;60894;42.544;1.516;2022-11-21T10:27:53;5.36;77.53
72772;SHT30;60894;42.544;1.516;2022-11-21T10:30:22;5.15;77.79
72772;SHT30;60894;42.544;1.516;2022-11-21T10:32:52;5.05;79.03
72772;SHT30;60894;42.544;1.516;2022-11-21T10:35:22;5.24;80.54
72772;SHT30;60894;42.544;1.516;2022-11-21T10:37:51;5.63;80.41
72772;SHT30;60894;42.544;1.516;2022-11-21T10:40:28;5.87;78.86
72772;SHT30;60894;42.544;1.516;2022-11-21T10:42:59;6.13;78.89
72772;SHT30;60894;42.544;1.516;2022-11-21T10:45:51;6.20;78.26
72772;SHT30;60894;42.544;1.516;2022-11-21T10:48:17;6.45;77.07
72772;SHT30;60894;42.544;1.516;2022-11-21T10:50:52;6.56;77.22
72772;SHT30;60894;42.544;1.516;2022-11-21T10:53:25;6.73;76.54
72772;SHT30;60894;42.544;1.516;2022-11-21T10:56:12;7.06;76.98
72772;SHT30;60894;42.544;1.516;2022-11-21T10:58:42;7.34;76.00
72772;SHT30;60894;42.544;1.516;2022-11-21T11:01:23;7.24;72.55
72772;SHT30;60894;42.544;1.516;2022-11-21T11:04:16;7.40;75.77
72772;SHT30;60894;42.544;1.516;2022-11-21T11:06:44;7.46;72.81
72772;SHT30;60894;42.544;1.516;2022-11-21T11:09:22;7.41;72.16
72772;SHT30;60894;42.544;1.516;2022-11-21T11:11:49;7.67;72.05
72772;SHT30;60894;42.544;1.516;2022-11-21T11:14:28;7.91;72.41
72772;SHT30;60894;42.544;1.516;2022-11-21T11:16:57;7.48;71.44
72772;SHT30;60894;42.544;1.516;2022-11-21T11:19:26;7.51;71.56
72772;SHT30;60894;42.544;1.516;2022-11-21T11:21:54;7.19;71.35
72772;SHT30;60894;42.544;1.516;2022-11-21T11:24:24;7.09;72.27
72772;SHT30;60894;42.544;1.516;2022-11-21T11:27:01;7.19;73.14
72772;SHT30;60894;42.544;1.516;2022-11-21T11:29:29;7.40;71.96
72772;SHT30;60894;42.544;1.516;2022-11-21T11:32:01;7.96;72.84
72772;SHT30;60894;42.544;1.516;2022-11-21T11:34:37;8.56;69.63
72772;SHT30;60894;42.544;1.516;2022-11-21T11:37:11;8.72;68.77
72772;SHT30;60894;42.544;1.516;2022-11-21T11:39:42;9.12;71.54
72772;SHT30;60894;42.544;1.516;2022-11-21T11:42:36;8.85;67.87
72772;SHT30;60894;42.544;1.516;2022-11-21T11:45:44;9.05;65.88
72772;SHT30;60894;42.544;1.516;2022-11-21T11:48:33;8.44;66.38
72772;SHT30;60894;42.544;1.516;2022-11-21T11:51:10;8.85;66.87
72772;SHT30;60894;42.544;1.516;2022-11-21T11:53:42;8.94;65.75
72772;SHT30;60894;42.544;1.516;2022-11-21T11:56:15;8.81;66.15
72772;SHT30;60894;42.544;1.516;2022-11-21T11:58:45;8.53;67.86
72772;SHT30;60894;42.544;1.516;2022-11-21T12:01:16;8.64;69.11
72772;SHT30;60894;42.544;1.516;2022-11-21T12:03:53;8.81;69.81
72772;SHT30;60894;42.544;1.516;2022-11-21T12:06:24;8.87;68.84
72772;SHT30;60894;42.544;1.516;2022-11-21T12:08:53;8.88;68.08
72772;SHT30;60894;42.544;1.516;2022-11-21T12:11:32;9.02;69.54
72772;SHT30;60894;42.544;1.516;2022-11-21T12:14:28;8.78;68.31
72772;SHT30;60894;42.544;1.516;2022-11-21T12:17:19;8.64;69.77
72772;SHT30;60894;42.544;1.516;2022-11-21T12:19:51;8.46;70.18
72772;SHT30;60894;42.544;1.516;2022-11-21T12:22:18;8.51;71.00
72772;SHT30;60894;42.544;1.516;2022-11-21T12:24:45;8.36;72.59
72772;SHT30;60894;42.544;1.516;2022-11-21T12:27:26;8.49;72.66
72772;SHT30;60894;42.544;1.516;2022-11-21T12:33:01;8.54;73.74
72772;SHT30;60894;42.544;1.516;2022-11-21T12:35:49;8.61;72.21
72772;SHT30;60894;42.544;1.516;2022-11-21T12:38:28;8.70;73.35
72772;SHT30;60894;42.544;1.516;2022-11-21T12:41:07;8.63;71.78
72772;SHT30;60894;42.544;1.516;2022-11-21T12:43:57;8.34;70.89
72772;SHT30;60894;42.544;1.516;2022-11-21T12:46:30;8.19;71.23
72772;SHT30;60894;42.544;1.516;2022-11-21T12:49:03;8.28;73.37
72772;SHT30;60894;42.544;1.516;2022-11-21T12:52:03;8.37;73.48
72772;SHT30;60894;42.544;1.516;2022-11-21T12:58:06;8.37;72.79
72772;SHT30;60894;42.544;1.516;2022-11-21T13:00:45;8.51;73.21
72772;SHT30;60894;42.544;1.516;2022-11-21T13:03:39;8.53;72.74
72772;SHT30;60894;42.544;1.516;2022-11-21T13:06:13;8.40;72.43
72772;SHT30;60894;42.544;1.516;2022-11-21T13:08:44;8.49;72.40
72772;SHT30;60894;42.544;1.516;2022-11-21T13:11:31;8.46;72.67
72772;SHT30;60894;42.544;1.516;2022-11-21T13:14:23;8.56;72.71
72772;SHT30;60894;42.544;1.516;2022-11-21T13:17:00;8.70;71.85
72772;SHT30;60894;42.544;1.516;2022-11-21T13:19:35;8.65;72.09
72772;SHT30;60894;42.544;1.516;2022-11-21T13:22:03;8.64;72.18
72772;SHT30;60894;42.544;1.516;2022-11-21T13:24:57;8.56;73.02
72772;SHT30;60894;42.544;1.516;2022-11-21T13:27:29;8.57;72.74
72772;SHT30;60894;42.544;1.516;2022-11-21T13:30:21;8.50;72.69
72772;SHT30;60894;42.544;1.516;2022-11-21T13:32:49;8.57;73.67
72772;SHT30;60894;42.544;1.516;2022-11-21T13:38:28;8.70;72.46
72772;SHT30;60894;42.544;1.516;2022-11-21T13:40:57;8.74;72.05
72772;SHT30;60894;42.544;1.516;2022-11-21T13:43:41;8.77;72.07
72772;SHT30;60894;42.544;1.516;2022-11-21T13:46:08;8.61;71.92
72772;SHT30;60894;42.544;1.516;2022-11-21T13:49:03;8.65;72.85
72772;SHT30;60894;42.544;1.516;2022-11-21T13:51:52;8.53;72.73
72772;SHT30;60894;42.544;1.516;2022-11-21T13:57:42;8.51;73.43
72772;SHT30;60894;42.544;1.516;2022-11-21T14:00:31;8.46;73.50
72772;SHT30;60894;42.544;1.516;2022-11-21T14:03:26;8.46;73.66
72772;SHT30;60894;42.544;1.516;2022-11-21T14:06:13;8.50;73.27
72772;SHT30;60894;42.544;1.516;2022-11-21T14:08:42;8.41;73.31
72772;SHT30;60894;42.544;1.516;2022-11-21T14:11:35;8.53;74.00
72772;SHT30;60894;42.544;1.516;2022-11-21T14:14:08;8.50;74.86
72772;SHT30;60894;42.544;1.516;2022-11-21T14:16:38;8.46;74.15
72772;SHT30;60894;42.544;1.516;2022-11-21T14:19:11;8.36;74.36
72772;SHT30;60894;42.544;1.516;2022-11-21T14:21:39;8.37;74.05
72772;SHT30;60894;42.544;1.516;2022-11-21T14:24:14;8.30;74.26
72772;SHT30;60894;42.544;1.516;2022-11-21T14:26:45;8.20;75.23
72772;SHT30;60894;42.544;1.516;2022-11-21T14:29:19;8.20;75.85
72772;SHT30;60894;42.544;1.516;2022-11-21T14:31:51;8.26;75.09
72772;SHT30;60894;42.544;1.516;2022-11-21T14:34:25;8.02;74.98
72772;SHT30;60894;42.544;1.516;2022-11-21T14:36:53;8.03;76.79
72772;SHT30;60894;42.544;1.516;2022-11-21T14:39:23;7.99;76.94
72772;SHT30;60894;42.544;1.516;2022-11-21T14:41:51;8.00;79.42
72772;SHT30;60894;42.544;1.516;2022-11-21T14:44:21;8.00;79.82
72772;SHT30;60894;42.544;1.516;2022-11-21T14:46:49;7.91;80.02
72772;SHT30;60894;42.544;1.516;2022-11-21T14:49:23;7.82;79.88
72772;SHT30;60894;42.544;1.516;2022-11-21T14:51:52;7.79;79.91
72772;SHT30;60894;42.544;1.516;2022-11-21T14:54:25;7.83;80.67
72772;SHT30;60894;42.544;1.516;2022-11-21T14:56:56;7.81;80.31
72772;SHT30;60894;42.544;1.516;2022-11-21T14:59:26;7.85;80.47
72772;SHT30;60894;42.544;1.516;2022-11-21T15:01:56;7.88;81.09
72772;SHT30;60894;42.544;1.516;2022-11-21T15:04:28;7.81;81.93
72772;SHT30;60894;42.544;1.516;2022-11-21T15:06:55;7.67;81.38
72772;SHT30;60894;42.544;1.516;2022-11-21T15:09:22;7.77;81.53
72772;SHT30;60894;42.544;1.516;2022-11-21T15:11:51;7.65;81.59
72772;SHT30;60894;42.544;1.516;2022-11-21T15:14:26;7.62;81.33
72772;SHT30;60894;42.544;1.516;2022-11-21T15:16:54;7.58;80.49
72772;SHT30;60894;42.544;1.516;2022-11-21T15:19:24;7.47;82.36
72772;SHT30;60894;42.544;1.516;2022-11-21T15:21:54;7.32;83.95
72772;SHT30;60894;42.544;1.516;2022-11-21T15:24:36;7.32;84.02
72772;SHT30;60894;42.544;1.516;2022-11-21T15:27:34;7.11;83.00
72772;SHT30;60894;42.544;1.516;2022-11-21T15:30:17;7.24;83.44
72772;SHT30;60894;42.544;1.516;2022-11-21T15:33:01;7.13;82.99
72772;SHT30;60894;42.544;1.516;2022-11-21T15:35:42;7.11;82.97
72772;SHT30;60894;42.544;1.516;2022-11-21T15:38:30;7.13;83.51
72772;SHT30;60894;42.544;1.516;2022-11-21T15:41:09;6.97;81.92
72772;SHT30;60894;42.544;1.516;2022-11-21T15:43:50;6.89;83.22
72772;SHT30;60894;42.544;1.516;2022-11-21T15:46:20;6.85;83.35
72772;SHT30;60894;42.544;1.516;2022-11-21T15:48:49;6.86;82.62
72772;SHT30;60894;42.544;1.516;2022-11-21T15:51:16;6.83;81.43
72772;SHT30;60894;42.544;1.516;2022-11-21T15:53:43;6.89;82.89
72772;SHT30;60894;42.544;1.516;2022-11-21T15:56:13;7.03;84.17
72772;SHT30;60894;42.544;1.516;2022-11-21T15:58:40;7.00;83.99
72772;SHT30;60894;42.544;1.516;2022-11-21T16:01:13;7.09;83.23
72772;SHT30;60894;42.544;1.516;2022-11-21T16:03:42;7.09;82.58
72772;SHT30;60894;42.544;1.516;2022-11-21T16:06:10;7.16;82.93
72772;SHT30;60894;42.544;1.516;2022-11-21T16:08:38;7.13;83.40
72772;SHT30;60894;42.544;1.516;2022-11-21T16:11:05;7.21;82.58
72772;SHT30;60894;42.544;1.516;2022-11-21T16:13:32;7.17;81.84
72772;SHT30;60894;42.544;1.516;2022-11-21T16:16:00;7.30;81.62
72772;SHT30;60894;42.544;1.516;2022-11-21T16:18:28;7.16;82.35
72772;SHT30;60894;42.544;1.516;2022-11-21T16:21:05;7.07;83.17